Time;durP1;ratioP1;P1;durP2;ratioP2;P2;SDS_P1;SDS_P2;PMS_P1;PMS_P2;Temp;Humidity;BMP_temperature;BMP_pressure;BME280_temperature;BME280_humidity;BME280_pressure;Samples;Min_cycle;Max_cycle;Signal;HPM_P1;HPM_P2
2023/11/09 00:02:10;;;;;;;17.30;9.30;;;;;;;6.59;87.34;98991.22;107390;1254;60392;-35
2023/11/09 00:04:37;;;;;;;14.90;9.90;;;;;;;6.50;87.52;98995.91;107399;1255;73854;-36
2023/11/09 00:07:07;;;;;;;15.20;9.40;;;;;;;6.47;87.85;98998.96;107393;1255;67639;-36
2023/11/09 00:09:35;;;;;;;12.70;9.80;;;;;;;6.49;87.95;99007.73;107522;1259;71224;-36
2023/11/09 00:12:04;;;;;;;13.60;10.60;;;;;;;6.52;87.92;99006.80;107445;1259;60421;-36
2023/11/09 00:14:32;;;;;;;13.50;10.80;;;;;;;6.49;88.24;99007.42;107491;1254;60304;-36
2023/11/09 00:16:59;;;;;;;15.30;11.30;;;;;;;6.48;88.72;99011.26;107385;1254;73905;-35
2023/11/09 00:19:28;;;;;;;14.50;11.60;;;;;;;6.51;88.97;99012.85;107437;1254;67594;-36
2023/11/09 00:21:55;;;;;;;14.70;10.80;;;;;;;6.56;88.80;99018.32;107400;1258;72648;-35
2023/11/09 00:24:23;;;;;;;14.70;10.80;;;;;;;6.62;88.84;99019.41;107439;1254;60344;-35
2023/11/09 00:26:51;;;;;;;17.80;11.90;;;;;;;6.65;89.06;99016.31;107429;1258;60430;-36
2023/11/09 00:29:19;;;;;;;18.70;12.20;;;;;;;6.66;89.40;99018.52;107536;1259;73848;-36
2023/11/09 00:31:47;;;;;;;19.30;12.90;;;;;;;6.67;89.34;99023.64;107494;1254;66333;-36
2023/11/09 00:34:14;;;;;;;15.40;11.40;;;;;;;6.74;89.03;99021.75;107450;1254;72696;-36
2023/11/09 00:36:42;;;;;;;17.20;11.80;;;;;;;6.81;88.81;99020.10;107519;1254;60380;-36
2023/11/09 00:39:12;;;;;;;21.30;12.80;;;;;;;6.85;89.06;99023.98;107383;1259;60270;-36
2023/11/09 00:41:39;;;;;;;18.70;13.50;;;;;;;6.84;89.12;99023.04;107517;1254;73857;-36
2023/11/09 00:44:07;;;;;;;18.90;13.30;;;;;;;6.83;88.98;99023.77;107498;1259;67578;-36
2023/11/09 00:46:34;;;;;;;17.50;12.60;;;;;;;6.86;88.91;99022.94;107480;1254;71114;-36
2023/11/09 00:49:03;;;;;;;23.50;13.40;;;;;;;6.93;88.82;99027.77;107521;1254;60533;-36
2023/11/09 00:51:30;;;;;;;20.80;13.80;;;;;;;6.96;88.84;99030.16;107564;1254;60332;-36
2023/11/09 00:53:58;;;;;;;18.60;13.20;;;;;;;6.93;88.75;99029.29;107401;1260;73938;-36
2023/11/09 00:56:26;;;;;;;19.40;13.90;;;;;;;6.90;88.95;99034.54;107536;1253;66285;-36
2023/11/09 00:58:53;;;;;;;18.50;12.50;;;;;;;6.93;88.70;99031.84;107482;1255;72652;-36
2023/11/09 01:01:22;;;;;;;22.10;13.20;;;;;;;6.97;88.76;99028.80;107530;1254;60443;-36
2023/11/09 01:03:50;;;;;;;18.80;13.20;;;;;;;6.96;88.87;99029.15;107396;1254;60393;-36
2023/11/09 01:06:17;;;;;;;26.50;13.80;;;;;;;6.96;89.17;99026.69;107358;1254;73856;-36
2023/11/09 01:08:45;;;;;;;18.00;13.20;;;;;;;6.97;89.28;99024.26;107374;1259;66937;-36
2023/11/09 01:11:12;;;;;;;22.70;14.50;;;;;;;7.04;89.22;99017.57;107343;1252;72677;-36
2023/11/09 01:13:40;;;;;;;19.00;13.60;;;;;;;7.16;89.04;99026.55;107403;1254;60617;-36
2023/11/09 01:16:08;;;;;;;20.10;14.60;;;;;;;7.20;88.98;99026.73;107512;1254;60335;-36
2023/11/09 01:18:36;;;;;;;22.30;14.20;;;;;;;7.20;88.82;99032.13;107521;1253;73895;-36
2023/11/09 01:21:05;;;;;;;18.90;13.30;;;;;;;7.18;88.60;99026.95;107501;1254;67622;-36
2023/11/09 01:23:32;;;;;;;21.30;12.40;;;;;;;7.20;88.54;99027.17;107545;1254;72494;-36
2023/11/09 01:26:00;;;;;;;19.10;13.40;;;;;;;7.22;88.30;99031.15;107504;1254;60380;-36
2023/11/09 01:28:28;;;;;;;21.80;14.50;;;;;;;7.21;88.43;99027.12;107464;1254;60380;-36
2023/11/09 01:30:56;;;;;;;24.80;14.00;;;;;;;7.22;88.98;99027.99;106754;1254;1002957;-36
2023/11/09 01:33:24;;;;;;;18.80;13.50;;;;;;;7.24;88.90;99028.27;107426;1254;67616;-36
2023/11/09 01:35:51;;;;;;;22.90;14.20;;;;;;;7.29;88.59;99022.95;107452;1254;72670;-36
2023/11/09 01:38:19;;;;;;;19.00;13.40;;;;;;;7.34;88.46;99026.71;107473;1253;60154;-36
2023/11/09 01:40:53;;;;;;;24.40;14.60;;;;;;;7.36;88.49;99031.61;107489;1254;59578;-35
2023/11/09 01:43:21;;;;;;;21.00;14.70;;;;;;;7.36;88.70;99030.84;107430;1254;72669;-36
2023/11/09 01:45:51;;;;;;;19.60;13.90;;;;;;;7.40;88.73;99036.48;107470;1254;67660;-36
2023/11/09 01:48:19;;;;;;;19.90;14.20;;;;;;;7.44;88.21;99033.20;107482;1254;72746;-36
2023/11/09 01:50:47;;;;;;;21.30;13.80;;;;;;;7.47;87.96;99036.04;107446;1254;60415;-36
2023/11/09 01:53:14;;;;;;;22.10;14.80;;;;;;;7.45;87.93;99037.54;107463;1255;60917;-36
2023/11/09 01:55:42;;;;;;;22.40;14.90;;;;;;;7.41;88.25;99039.83;107529;1254;72634;-36
2023/11/09 01:58:11;;;;;;;19.70;14.60;;;;;;;7.42;88.31;99039.54;107378;1254;67621;-36
2023/11/09 02:00:38;;;;;;;18.50;13.80;;;;;;;7.49;88.15;99043.86;107379;1254;72053;-36
2023/11/09 02:03:06;;;;;;;18.90;13.70;;;;;;;7.57;87.93;99044.18;107180;1254;60832;-36
2023/11/09 02:05:37;;;;;;;18.50;14.50;;;;;;;7.62;87.82;99042.69;107266;1254;60524;-36
2023/11/09 02:08:05;;;;;;;24.20;15.10;;;;;;;7.60;87.54;99043.09;107297;1254;74123;-36
2023/11/09 02:10:33;;;;;;;19.60;14.20;;;;;;;7.55;87.61;99047.50;107307;1254;66648;-36
2023/11/09 02:13:02;;;;;;;20.20;13.90;;;;;;;7.55;87.56;99047.90;107388;1254;71456;-36
2023/11/09 02:15:30;;;;;;;19.10;14.70;;;;;;;7.61;87.40;99046.20;107594;1254;60412;-36
2023/11/09 02:17:58;;;;;;;22.90;14.70;;;;;;;7.61;87.36;99045.80;107470;1254;61163;-36
2023/11/09 02:20:26;;;;;;;22.40;15.60;;;;;;;7.58;87.66;99047.73;107406;1254;72757;-36
2023/11/09 02:22:54;;;;;;;20.90;14.40;;;;;;;7.56;87.65;99048.06;107396;1254;67575;-36
2023/11/09 02:25:21;;;;;;;23.70;15.00;;;;;;;7.57;87.32;99046.09;107186;1254;72709;-36
2023/11/09 02:27:49;;;;;;;20.80;14.90;;;;;;;7.57;87.17;99048.78;107209;1254;60536;-36
2023/11/09 02:30:17;;;;;;;22.60;15.00;;;;;;;7.54;87.49;99045.94;107406;1254;60351;-36
2023/11/09 02:32:44;;;;;;;21.00;14.80;;;;;;;7.51;87.73;99052.56;107491;1254;73783;-36
2023/11/09 02:35:12;;;;;;;22.40;15.30;;;;;;;7.48;87.92;99052.73;107388;1253;67892;-35
2023/11/09 02:37:39;;;;;;;20.60;14.50;;;;;;;7.55;87.90;99058.36;107488;1253;72697;-36
2023/11/09 02:40:08;;;;;;;24.20;16.40;;;;;;;7.60;87.65;99056.65;107498;1253;60307;-36
2023/11/09 02:42:36;;;;;;;23.40;16.70;;;;;;;7.57;87.57;99057.29;107577;1254;60329;-36
2023/11/09 02:45:04;;;;;;;33.30;17.40;;;;;;;7.52;87.80;99063.08;107542;1259;73834;-36
2023/11/09 02:47:31;;;;;;;22.80;16.10;;;;;;;7.46;87.96;99069.01;107572;1254;67598;-36
2023/11/09 02:49:59;;;;;;;23.30;15.20;;;;;;;7.48;87.85;99071.42;107396;1253;71425;-34
2023/11/09 02:52:27;;;;;;;26.20;16.00;;;;;;;7.51;87.75;99072.89;107532;1253;60193;-35
2023/11/09 02:54:55;;;;;;;22.50;16.70;;;;;;;7.48;87.86;99069.27;107552;1254;60297;-35
2023/11/09 02:57:23;;;;;;;23.30;15.60;;;;;;;7.39;87.89;99072.69;107513;1254;73883;-35
2023/11/09 02:59:50;;;;;;;23.20;14.60;;;;;;;7.31;88.13;99070.40;107509;1254;68013;-35
2023/11/09 03:02:18;;;;;;;19.90;14.20;;;;;;;7.31;88.05;99070.38;107407;1254;71444;-35
2023/11/09 03:04:46;;;;;;;19.20;14.30;;;;;;;7.32;87.89;99071.55;107319;1257;60463;-35
2023/11/09 03:07:14;;;;;;;20.40;14.50;;;;;;;7.29;88.04;99072.34;107390;1253;60418;-35
2023/11/09 03:09:44;;;;;;;23.70;16.00;;;;;;;7.25;88.29;99075.55;107378;1254;73802;-35
2023/11/09 03:12:12;;;;;;;21.30;15.90;;;;;;;7.23;88.36;99080.78;107458;1254;67562;-35
2023/11/09 03:14:40;;;;;;;20.00;14.40;;;;;;;7.25;88.27;99081.92;107375;1254;72725;-35
2023/11/09 03:17:09;;;;;;;21.10;14.40;;;;;;;7.29;88.23;99085.95;107312;1254;59704;-35
2023/11/09 03:19:38;;;;;;;19.80;13.50;;;;;;;7.26;88.22;99087.05;107274;1253;60418;-35
2023/11/09 03:22:08;;;;;;;18.20;14.10;;;;;;;7.19;88.47;99091.95;107425;1254;72556;-35
2023/11/09 03:24:36;;;;;;;;;;;;;;;7.15;88.77;99093.77;107513;1252;67768;-35
2023/11/09 03:27:05;;;;;;;17.80;13.10;;;;;;;7.18;88.91;99098.14;107443;1255;72694;-35
2023/11/09 03:29:33;;;;;;;16.10;12.40;;;;;;;7.20;88.98;99100.14;107498;1254;60485;-35
2023/11/09 03:32:00;;;;;;;20.20;14.00;;;;;;;7.19;89.20;99097.85;107463;1254;59649;-35
2023/11/09 03:34:28;;;;;;;18.70;13.60;;;;;;;7.17;89.47;99098.73;107503;1253;72627;-35
2023/11/09 03:36:55;;;;;;;21.60;13.80;;;;;;;7.16;89.38;99100.79;107543;1253;66650;-35
2023/11/09 03:39:24;;;;;;;18.60;13.00;;;;;;;7.20;89.24;99101.29;107497;1254;72716;-35
2023/11/09 03:41:51;;;;;;;19.40;13.30;;;;;;;7.26;89.21;99099.98;107527;1254;60504;-35
2023/11/09 03:44:19;;;;;;;20.80;14.40;;;;;;;7.27;89.31;99100.70;107520;1254;60238;-35
2023/11/09 03:46:50;;;;;;;20.90;14.40;;;;;;;7.25;89.29;99100.20;107507;1253;73828;-35
2023/11/09 03:49:19;;;;;;;19.20;12.70;;;;;;;7.24;89.23;99098.75;107518;1254;67892;-35
2023/11/09 03:51:47;;;;;;;15.20;10.50;;;;;;;7.24;89.08;99097.99;107490;1259;72727;-36
2023/11/09 03:54:14;;;;;;;21.60;13.50;;;;;;;7.27;89.00;99105.16;107477;1254;59283;-35
2023/11/09 03:56:42;;;;;;;20.90;14.30;;;;;;;7.23;89.19;99113.98;107474;1254;60380;-35
2023/11/09 03:59:10;;;;;;;19.60;14.30;;;;;;;7.19;89.40;99113.36;107337;1254;72896;-35
2023/11/09 04:01:37;;;;;;;19.20;13.30;;;;;;;7.20;89.38;99116.69;107390;1254;67566;-35
2023/11/09 04:04:06;;;;;;;20.80;13.80;;;;;;;7.21;89.23;99116.79;107354;1254;71468;-35
2023/11/09 04:06:34;;;;;;;16.40;13.20;;;;;;;7.19;89.30;99120.14;107517;1254;60363;-35
2023/11/09 04:09:05;;;;;;;17.80;13.80;;;;;;;7.17;89.59;99125.47;107516;1254;60326;-35
2023/11/09 04:11:33;;;;;;;19.40;13.20;;;;;;;7.18;89.95;99122.48;107506;1254;72922;-35
2023/11/09 04:14:01;;;;;;;17.30;12.90;;;;;;;7.26;89.86;99119.94;107487;1254;66791;-35
2023/11/09 04:16:28;;;;;;;17.90;12.90;;;;;;;7.32;89.22;99119.70;107424;1254;71510;-35
2023/11/09 04:18:56;;;;;;;18.70;13.50;;;;;;;7.30;88.94;99121.65;107404;1258;60325;-35
2023/11/09 04:21:24;;;;;;;20.30;13.70;;;;;;;7.25;89.05;99119.00;107386;1254;60417;-35
2023/11/09 04:23:51;;;;;;;16.80;11.90;;;;;;;7.22;89.16;99120.82;107390;1253;71301;-35
2023/11/09 04:26:19;;;;;;;19.90;12.50;;;;;;;7.25;88.80;99130.84;107455;1254;66635;-35
2023/11/09 04:28:50;;;;;;;19.10;12.20;;;;;;;7.28;88.54;99130.56;107456;1254;72392;-35
2023/11/09 04:31:20;;;;;;;21.50;13.20;;;;;;;7.26;88.54;99137.13;107492;1254;60316;-35
2023/11/09 04:33:48;;;;;;;15.90;12.30;;;;;;;7.21;88.70;99137.36;107495;1254;60277;-35
2023/11/09 04:36:17;;;;;;;17.90;13.00;;;;;;;7.18;88.69;99137.64;107486;1254;72684;-35
2023/11/09 04:38:46;;;;;;;17.60;11.90;;;;;;;7.21;88.56;99141.44;107476;1254;66774;-35
2023/11/09 04:41:16;;;;;;;18.40;12.70;;;;;;;7.23;88.46;99142.03;107592;1254;71439;-35
2023/11/09 04:43:44;;;;;;;18.70;12.70;;;;;;;7.21;88.56;99142.06;107501;1254;60841;-35
2023/11/09 04:46:17;;;;;;;16.80;13.10;;;;;;;7.18;88.77;99151.35;107535;1254;59424;-35
2023/11/09 04:48:47;;;;;;;17.30;12.30;;;;;;;7.14;88.83;99150.64;107525;1254;73875;-35
2023/11/09 04:51:22;;;;;;;;;;;;;;;7.17;88.55;99154.41;107478;1259;68718;-35
2023/11/09 04:53:56;;;;;;;17.90;12.00;;;;;;;7.20;88.56;99157.52;107513;1253;72666;-35
2023/11/09 04:56:52;;;;;;;17.20;12.80;;;;;;;7.18;88.64;99157.45;107516;1253;60440;-35
2023/11/09 05:07:29;;;;;;;15.40;10.90;;;;;;;7.23;88.59;99165.63;107440;1254;72651;-35
2023/11/09 05:09:57;;;;;;;13.70;10.40;;;;;;;7.21;88.55;99165.40;107555;1254;60293;-35
2023/11/09 05:12:26;;;;;;;16.10;11.30;;;;;;;7.21;88.80;99161.78;107491;1254;60338;-35
2023/11/09 05:14:53;;;;;;;15.00;10.30;;;;;;;7.27;88.65;99165.50;107461;1254;73942;-35
2023/11/09 05:17:21;;;;;;;13.90;9.90;;;;;;;7.33;88.13;99168.45;107381;1257;66303;-35
2023/11/09 05:19:50;;;;;;;13.10;9.40;;;;;;;7.31;87.99;99166.92;107439;1253;72715;-35
2023/11/09 05:22:18;;;;;;;13.80;9.20;;;;;;;7.27;87.76;99169.36;107522;1254;60389;-35
2023/11/09 05:24:48;;;;;;;8.80;6.40;;;;;;;7.25;87.53;99173.76;107496;1254;60472;-35
2023/11/09 05:27:17;;;;;;;8.30;6.10;;;;;;;7.27;86.81;99176.35;107485;1254;73899;-35
2023/11/09 05:29:46;;;;;;;9.80;6.60;;;;;;;7.31;86.24;99185.11;107506;1254;67566;-35
2023/11/09 05:32:14;;;;;;;9.70;7.00;;;;;;;7.31;86.18;99190.19;107506;1254;72684;-36
2023/11/09 05:34:42;;;;;;;10.50;6.70;;;;;;;7.29;86.18;99194.91;107466;1254;60424;-36
2023/11/09 05:37:10;;;;;;;10.30;7.40;;;;;;;7.29;86.25;99196.98;107543;1254;60510;-36
2023/11/09 05:39:38;;;;;;;10.50;6.40;;;;;;;7.32;86.06;99204.41;107501;1254;73839;-36
2023/11/09 05:42:07;;;;;;;10.20;5.70;;;;;;;7.36;86.09;99205.58;107578;1254;66929;-36
2023/11/09 05:44:34;;;;;;;8.70;5.60;;;;;;;7.36;86.14;99209.77;107397;1254;71733;-35
2023/11/09 05:47:03;;;;;;;7.10;5.10;;;;;;;7.33;86.30;99217.46;107418;1254;60551;-36
2023/11/09 05:49:30;;;;;;;8.40;5.60;;;;;;;7.32;86.49;99217.64;107447;1254;60399;-36
2023/11/09 05:51:59;;;;;;;8.30;6.10;;;;;;;7.35;86.38;99217.42;107418;1254;73885;-36
2023/11/09 05:54:27;;;;;;;13.50;7.10;;;;;;;7.40;86.22;99219.64;107462;1254;67581;-36
2023/11/09 05:56:54;;;;;;;14.30;7.80;;;;;;;7.38;86.31;99221.67;107496;1254;72597;-35
2023/11/09 05:59:23;;;;;;;12.90;7.70;;;;;;;7.31;86.55;99224.03;107469;1254;60404;-36
2023/11/09 06:01:51;;;;;;;12.20;8.10;;;;;;;7.26;86.90;99224.40;107445;1254;60354;-36
2023/11/09 06:04:18;;;;;;;12.20;7.30;;;;;;;7.26;87.17;99228.10;107489;1256;73010;-36
2023/11/09 06:06:46;;;;;;;9.90;7.30;;;;;;;7.28;87.19;99228.77;107607;1254;67607;-36
2023/11/09 06:09:15;;;;;;;11.20;7.80;;;;;;;7.29;87.56;99228.66;107395;1254;72705;-36
2023/11/09 06:11:43;;;;;;;13.20;7.90;;;;;;;7.29;87.75;99234.28;107410;1254;60406;-36
2023/11/09 06:14:13;;;;;;;12.10;7.80;;;;;;;7.27;87.67;99235.66;107475;1254;60459;-36
2023/11/09 06:16:42;;;;;;;10.20;7.10;;;;;;;7.29;87.47;99235.29;107477;1253;72580;-36
2023/11/09 06:19:09;;;;;;;13.80;7.10;;;;;;;7.32;87.37;99238.60;107387;1253;66475;-36
2023/11/09 06:21:38;;;;;;;10.50;7.40;;;;;;;7.32;87.57;99243.53;107443;1254;72437;-35
2023/11/09 06:24:07;;;;;;;10.70;7.70;;;;;;;7.28;87.71;99251.48;107605;1254;60393;-35
2023/11/09 06:26:35;;;;;;;11.50;7.80;;;;;;;7.26;87.84;99254.13;107575;1254;60125;-35
2023/11/09 06:29:03;;;;;;;11.10;7.10;;;;;;;7.27;87.65;99248.99;107478;1253;73879;-35
2023/11/09 06:31:31;;;;;;;10.50;7.40;;;;;;;7.34;87.29;99255.39;107484;1254;66977;-36
2023/11/09 06:33:59;;;;;;;12.30;7.80;;;;;;;7.33;87.18;99255.04;107562;1254;71397;-36
2023/11/09 06:36:28;;;;;;;11.30;8.00;;;;;;;7.27;87.30;99262.34;107495;1253;60365;-36
2023/11/09 06:38:56;;;;;;;11.80;7.20;;;;;;;7.25;87.59;99264.67;107494;1259;60313;-35
2023/11/09 06:41:27;;;;;;;12.20;7.80;;;;;;;7.28;87.39;99267.54;107346;1254;73459;-36
2023/11/09 06:43:55;;;;;;;10.00;7.10;;;;;;;7.35;87.39;99270.36;107372;1254;67578;-35
2023/11/09 06:46:26;;;;;;;10.80;7.90;;;;;;;7.35;87.28;99273.59;107378;1258;72180;-36
2023/11/09 06:48:54;;;;;;;11.10;7.10;;;;;;;7.31;87.37;99274.17;107427;1254;60329;-36
2023/11/09 06:51:22;;;;;;;9.80;6.70;;;;;;;7.30;87.43;99278.92;107477;1254;61150;-36
2023/11/09 06:53:51;;;;;;;9.60;6.40;;;;;;;7.32;87.32;99275.27;107460;1254;72610;-36
2023/11/09 06:56:18;;;;;;;13.30;6.60;;;;;;;7.45;87.40;99277.20;107569;1254;68082;-36
2023/11/09 06:58:46;;;;;;;11.00;7.00;;;;;;;7.52;87.44;99273.55;107451;1253;71555;-37
2023/11/09 07:01:14;;;;;;;13.70;7.10;;;;;;;7.57;87.39;99277.08;107312;1254;205103;-37
2023/11/09 07:05:56;;;;;;;10.70;6.60;;;;;;;7.61;86.36;99274.22;104246;1291;600280;-35
2023/11/09 07:08:28;;;;;;;12.00;7.00;;;;;;;7.62;86.05;99274.23;106624;1266;60398;-36
2023/11/09 07:10:58;;;;;;;10.20;6.60;;;;;;;7.66;86.05;99276.49;106602;1264;60068;-36
2023/11/09 07:13:26;;;;;;;9.50;7.00;;;;;;;7.65;86.04;99282.18;107166;1256;72316;-36
2023/11/09 07:15:53;;;;;;;9.70;7.30;;;;;;;7.62;86.22;99281.09;107170;1257;67859;-36
2023/11/09 07:18:21;;;;;;;10.30;5.70;;;;;;;7.67;86.34;99282.00;107129;1257;71414;-37
2023/11/09 07:20:49;;;;;;;7.10;5.60;;;;;;;7.76;85.85;99283.43;107164;1256;60795;-36
2023/11/09 07:23:37;;;;;;;7.70;6.00;;;;;;;7.80;85.42;99286.95;107333;1255;60016;-36
2023/11/09 07:26:05;;;;;;;9.70;6.00;;;;;;;7.80;85.36;99293.04;107245;1256;72211;-37
2023/11/09 07:28:33;;;;;;;9.90;5.80;;;;;;;7.79;84.80;99291.98;107251;1256;66823;-35
2023/11/09 07:31:00;;;;;;;8.10;5.50;;;;;;;7.78;84.67;99299.91;107272;1255;72753;-35
2023/11/09 07:33:29;;;;;;;9.70;4.80;;;;;;;7.82;84.50;99296.64;107268;1255;60389;-35
2023/11/09 07:35:59;;;;;;;8.10;4.90;;;;;;;7.87;83.72;99299.64;107165;1256;60052;-35
2023/11/09 07:38:28;;;;;;;8.10;5.20;;;;;;;7.89;83.60;99299.13;107104;1256;73085;-36
2023/11/09 07:40:55;;;;;;;7.30;4.90;;;;;;;7.89;83.57;99297.52;107226;1256;68231;-36
2023/11/09 07:43:25;;;;;;;7.20;4.90;;;;;;;7.90;83.25;99300.38;107235;1253;72684;-36
2023/11/09 07:45:53;;;;;;;6.90;5.00;;;;;;;7.92;82.47;99296.92;107436;1255;61795;-36
2023/11/09 07:48:23;;;;;;;8.70;4.90;;;;;;;7.95;81.93;99292.92;107396;1254;60031;-36
2023/11/09 07:50:52;;;;;;;7.40;4.70;;;;;;;7.91;81.10;99293.48;107237;1256;73172;-36
2023/11/09 07:53:22;;;;;;;7.90;5.10;;;;;;;7.86;81.17;99294.52;107302;1260;67607;-35
2023/11/09 07:55:50;;;;;;;6.00;4.40;;;;;;;7.82;81.20;99292.10;107335;1254;72680;-35
2023/11/09 07:58:19;;;;;;;9.50;4.20;;;;;;;7.85;80.99;99293.55;107277;1256;61714;-35
2023/11/09 08:00:49;;;;;;;6.60;4.20;;;;;;;7.92;80.97;99306.77;107114;1256;60108;-35
2023/11/09 08:03:17;;;;;;;7.70;4.90;;;;;;;7.94;80.86;99310.30;107156;1260;72865;-36
2023/11/09 08:05:46;;;;;;;9.60;5.50;;;;;;;7.93;81.06;99315.92;107463;1257;66604;-36
2023/11/09 08:08:14;;;;;;;8.00;5.10;;;;;;;7.93;81.45;99316.52;107163;1256;72739;-36
2023/11/09 08:10:42;;;;;;;10.10;5.30;;;;;;;7.98;81.60;99317.75;107431;1254;59444;-36
2023/11/09 08:13:12;;;;;;;8.40;5.60;;;;;;;8.04;81.45;99317.91;107297;1256;60065;-36
2023/11/09 08:15:39;;;;;;;;;;;;;;;8.03;81.72;99322.84;107260;1256;71760;-36
2023/11/09 08:18:07;;;;;;;11.20;6.50;;;;;;;8.01;81.99;99325.16;107253;1256;67770;-36
2023/11/09 08:20:35;;;;;;;9.30;6.60;;;;;;;7.99;82.30;99329.52;107218;1256;72670;-36
2023/11/09 08:23:02;;;;;;;8.90;6.50;;;;;;;8.05;82.31;99330.22;107235;1255;60514;-35
2023/11/09 08:25:30;;;;;;;9.40;7.20;;;;;;;8.13;82.27;99331.60;107184;1257;59772;-35
2023/11/09 08:27:58;;;;;;;11.50;7.80;;;;;;;8.16;82.37;99329.68;107257;1256;73079;-35
2023/11/09 08:30:28;;;;;;;11.00;8.00;;;;;;;8.15;82.32;99331.73;107259;1256;66506;-35
2023/11/09 08:32:56;;;;;;;10.90;8.00;;;;;;;8.13;82.46;99334.00;107083;1257;72698;-35
2023/11/09 08:35:24;;;;;;;13.30;8.90;;;;;;;8.16;82.31;99336.24;106962;1256;61738;-35
2023/11/09 08:37:52;;;;;;;11.50;8.30;;;;;;;8.22;82.55;99338.18;107206;1256;60059;-35
2023/11/09 08:40:27;;;;;;;13.60;9.10;;;;;;;8.25;82.64;99342.04;107246;1255;73449;-35
2023/11/09 08:42:57;;;;;;;13.30;9.60;;;;;;;8.26;83.21;99349.11;107279;1256;68436;-36
2023/11/09 08:45:28;;;;;;;14.10;9.60;;;;;;;8.30;83.38;99350.84;107208;1256;74924;-35
2023/11/09 08:47:57;;;;;;;13.80;9.40;;;;;;;8.41;83.43;99352.54;107162;1256;60191;-35
2023/11/09 08:50:25;;;;;;;17.80;10.00;;;;;;;8.54;83.11;99360.67;107144;1256;60218;-35
2023/11/09 08:52:53;;;;;;;12.60;10.90;;;;;;;8.57;82.54;99358.05;107158;1256;72163;-35
2023/11/09 08:55:25;;;;;;;10.00;8.70;;;;;;;8.54;82.10;99367.73;107274;1257;67722;-35
2023/11/09 08:57:54;;;;;;;14.80;10.70;;;;;;;8.49;82.37;99363.70;107204;1255;73062;-35
2023/11/09 09:00:23;;;;;;;15.30;10.30;;;;;;;8.49;82.04;99362.63;107111;1256;60786;-35
2023/11/09 09:02:52;;;;;;;13.00;10.20;;;;;;;8.50;82.01;99364.83;107133;1256;59728;-35
2023/11/09 09:05:26;;;;;;;14.50;11.10;;;;;;;8.48;82.14;99367.55;107109;1256;75170;-36
2023/11/09 09:07:56;;;;;;;19.00;10.70;;;;;;;8.43;82.38;99366.17;107181;1256;67571;-35
2023/11/09 09:10:30;;;;;;;13.90;11.40;;;;;;;8.41;82.80;99365.73;107212;1256;75246;-35
2023/11/09 09:13:02;;;;;;;15.50;10.60;;;;;;;8.48;83.06;99370.42;107267;1260;59436;-35
2023/11/09 09:15:30;;;;;;;14.60;10.10;;;;;;;8.58;82.86;99372.45;107201;1256;59794;-35
2023/11/09 09:17:58;;;;;;;18.30;11.30;;;;;;;8.64;82.39;99372.14;107261;1256;73100;-35
2023/11/09 09:20:27;;;;;;;14.50;11.70;;;;;;;8.72;82.68;99373.92;107270;1256;67913;-35
2023/11/09 09:22:59;;;;;;;13.70;11.00;;;;;;;8.85;82.47;99371.92;107251;1256;73613;-35
2023/11/09 09:25:29;;;;;;;12.20;10.30;;;;;;;9.00;81.47;99373.10;107202;1256;63423;-35
2023/11/09 09:27:59;;;;;;;13.30;10.10;;;;;;;9.09;80.36;99371.98;107303;1256;60078;-35
2023/11/09 09:30:26;;;;;;;15.50;10.90;;;;;;;9.12;79.98;99371.44;107184;1257;75073;-35
2023/11/09 09:32:55;;;;;;;12.30;10.20;;;;;;;9.17;80.08;99370.48;107368;1257;68076;-35
2023/11/09 09:35:30;;;;;;;11.70;9.80;;;;;;;9.26;80.07;99370.40;107247;1256;72705;-35
2023/11/09 09:38:11;;;;;;;15.10;9.30;;;;;;;9.39;79.27;99368.86;107228;1256;61708;-35
2023/11/09 09:40:39;;;;;;;13.70;9.60;;;;;;;9.47;77.80;99371.20;107199;1260;60944;-35
2023/11/09 09:43:19;;;;;;;12.70;10.70;;;;;;;9.43;77.11;99369.18;107213;1256;72398;-35
2023/11/09 09:45:57;;;;;;;12.10;9.30;;;;;;;9.37;77.41;99369.52;107309;1255;66760;-35
2023/11/09 09:48:27;;;;;;;13.90;9.10;;;;;;;9.35;77.49;99371.40;107124;1256;71452;-35
2023/11/09 09:50:58;;;;;;;10.70;8.30;;;;;;;9.43;77.52;99374.59;107328;1257;62669;-35
2023/11/09 09:53:26;;;;;;;10.40;8.40;;;;;;;9.56;77.39;99378.14;107203;1256;60376;-35
2023/11/09 09:55:54;;;;;;;11.40;7.80;;;;;;;9.67;77.03;99381.25;107170;1255;73042;-35
2023/11/09 09:58:22;;;;;;;9.30;8.00;;;;;;;9.72;76.33;99381.29;107088;1256;68360;-35
2023/11/09 10:00:54;;;;;;;10.50;8.30;;;;;;;9.72;75.36;99382.92;106985;1256;73042;-35
2023/11/09 10:03:23;;;;;;;10.10;7.30;;;;;;;9.72;75.78;99386.56;107358;1256;59896;-35
2023/11/09 10:05:51;;;;;;;9.60;7.50;;;;;;;9.77;75.80;99389.15;107069;1256;59299;-35
2023/11/09 10:08:20;;;;;;;10.70;7.80;;;;;;;9.82;75.28;99388.25;107242;1256;72256;-35
2023/11/09 10:10:50;;;;;;;10.70;7.50;;;;;;;9.81;75.21;99386.36;107434;1256;68178;-35
2023/11/09 10:13:19;;;;;;;;;;;;;;;9.78;75.00;99389.93;107208;1256;73895;-35
2023/11/09 10:15:58;;;;;;;9.60;7.60;;;;;;;9.74;74.72;99388.77;107226;1256;60449;-35
2023/11/09 10:18:30;;;;;;;11.30;7.70;;;;;;;9.68;73.87;99390.34;107406;1256;59881;-35
2023/11/09 10:20:59;;;;;;;11.20;7.50;;;;;;;9.65;74.32;99394.13;107216;1256;73742;-35
2023/11/09 10:23:27;;;;;;;8.50;7.20;;;;;;;9.63;74.02;99393.70;107226;1257;68559;-35
2023/11/09 10:25:55;;;;;;;10.00;7.40;;;;;;;9.57;73.54;99398.98;107248;1256;71830;-35
2023/11/09 10:28:28;;;;;;;10.90;7.60;;;;;;;9.50;73.03;99400.10;107316;1256;60231;-35
2023/11/09 10:30:56;;;;;;;11.20;8.00;;;;;;;9.46;73.23;99400.50;107236;1256;60122;-35
2023/11/09 10:33:26;;;;;;;10.90;8.00;;;;;;;9.43;72.91;99401.05;107242;1260;73058;-35
2023/11/09 10:35:54;;;;;;;9.70;7.50;;;;;;;9.45;72.92;99401.63;107218;1256;68070;-35
2023/11/09 10:38:24;;;;;;;9.10;7.50;;;;;;;9.49;73.03;99404.95;107257;1256;71565;-35
2023/11/09 10:40:54;;;;;;;11.80;8.40;;;;;;;9.46;72.63;99404.44;107128;1256;60427;-35
2023/11/09 10:43:42;;;;;;;12.30;8.60;;;;;;;9.40;73.26;99400.66;107261;1256;59961;-35
2023/11/09 10:46:15;;;;;;;10.60;8.50;;;;;;;9.37;73.37;99400.05;107249;1256;73447;-35
2023/11/09 10:48:48;;;;;;;9.20;7.80;;;;;;;9.40;73.68;99399.65;107130;1256;66429;-35
2023/11/09 10:51:17;;;;;;;10.50;6.90;;;;;;;9.52;73.87;99400.85;107296;1257;73085;-35
2023/11/09 10:53:47;;;;;;;10.90;8.10;;;;;;;9.65;73.27;99407.45;107261;1256;59624;-35
2023/11/09 10:56:15;;;;;;;9.80;8.20;;;;;;;9.72;73.19;99408.76;107296;1258;60142;-35
2023/11/09 10:58:44;;;;;;;12.10;8.40;;;;;;;9.74;73.23;99411.52;107426;1256;75190;-35
2023/11/09 11:01:29;;;;;;;12.50;9.20;;;;;;;9.73;72.46;99412.71;106418;1256;1002899;-35
2023/11/09 11:03:58;;;;;;;11.30;8.20;;;;;;;9.69;72.83;99415.87;107272;1257;72674;-35
2023/11/09 11:06:51;;;;;;;13.40;8.00;;;;;;;9.69;72.95;99413.16;107257;1256;60603;-35
2023/11/09 11:09:25;;;;;;;15.30;7.70;;;;;;;9.69;72.68;99417.42;107192;1256;60030;-35
2023/11/09 11:12:00;;;;;;;11.30;8.10;;;;;;;9.60;72.23;99417.05;107161;1256;73087;-35
2023/11/09 11:14:28;;;;;;;11.20;8.70;;;;;;;9.48;72.35;99421.49;107287;1256;68590;-35
2023/11/09 11:17:14;;;;;;;11.20;8.10;;;;;;;9.40;73.09;99423.70;107085;1257;71921;-35
2023/11/09 11:20:17;;;;;;;12.00;8.60;;;;;;;9.38;73.71;99428.37;107104;1257;60631;-35
2023/11/09 11:22:51;;;;;;;10.70;8.10;;;;;;;9.43;73.79;99428.48;107219;1256;60432;-35
2023/11/09 11:25:45;;;;;;;12.10;8.00;;;;;;;9.48;73.54;99423.51;107103;1256;72711;-36
2023/11/09 11:28:17;;;;;;;13.50;8.50;;;;;;;9.47;73.53;99432.83;107431;1259;68987;-35
2023/11/09 11:30:59;;;;;;;11.80;8.80;;;;;;;9.44;73.55;99440.11;107119;1256;72673;-35
2023/11/09 11:33:51;;;;;;;13.30;8.40;;;;;;;9.38;73.44;99443.20;107109;1262;62009;-36
2023/11/09 11:36:29;;;;;;;9.60;7.60;;;;;;;9.39;73.72;99445.15;107148;1256;60955;-36
2023/11/09 11:39:41;;;;;;;10.20;7.90;;;;;;;9.39;73.68;99445.77;107181;1257;72972;-36
2023/11/09 11:42:17;;;;;;;14.80;8.00;;;;;;;9.34;73.83;99447.36;107188;1260;68101;-36
2023/11/09 11:44:55;;;;;;;10.60;8.50;;;;;;;9.26;73.72;99444.23;107134;1256;71640;-36
2023/11/09 11:47:30;;;;;;;10.90;8.00;;;;;;;9.24;73.96;99452.11;107216;1256;61718;-36